Time;durP1;ratioP1;P1;durP2;ratioP2;P2;SDS_P1;SDS_P2;PMS_P1;PMS_P2;Temp;Humidity;BMP_temperature;BMP_pressure;BME280_temperature;BME280_humidity;BME280_pressure;Samples;Min_cycle;Max_cycle;Signal;HPM_P1;HPM_P2
2022/03/19 00:02:02;;;;;;;25.63;19.33;;;4.90;90.20;;;;;;5117441;28;20189;-86
2022/03/19 00:04:28;;;;;;;23.07;19.87;;;4.90;90.10;;;;;;5098365;28;20177;-87
2022/03/19 00:06:54;;;;;;;24.13;19.43;;;4.80;90.20;;;;;;5097986;28;20272;-87
2022/03/19 00:09:20;;;;;;;24.50;19.90;;;4.70;90.30;;;;;;5116424;28;20291;-86
2022/03/19 00:11:46;;;;;;;27.67;20.10;;;4.60;90.30;;;;;;5116193;28;20643;-87
2022/03/19 00:14:14;;;;;;;25.17;19.67;;;4.50;90.40;;;;;;5117046;28;20269;-90
2022/03/19 00:16:40;;;;;;;24.20;18.70;;;4.50;90.50;;;;;;5118373;28;20181;-91
2022/03/19 00:19:08;;;;;;;23.37;18.70;;;4.50;90.50;;;;;;5103517;28;20195;-92
2022/03/19 00:21:34;;;;;;;22.53;18.70;;;4.40;90.50;;;;;;5114283;28;20161;-89
2022/03/19 00:24:01;;;;;;;25.60;19.40;;;4.40;90.60;;;;;;5140933;28;20173;-89
2022/03/19 00:26:27;;;;;;;23.40;18.77;;;4.40;90.70;;;;;;5120919;28;20181;-90
2022/03/19 00:28:53;;;;;;;26.73;19.17;;;4.40;90.70;;;;;;5101846;28;20247;-92
2022/03/19 00:31:18;;;;;;;24.53;18.93;;;4.30;90.70;;;;;;5098410;28;20240;-86
2022/03/19 00:33:44;;;;;;;23.53;19.53;;;4.30;90.90;;;;;;5097979;28;20174;-91
2022/03/19 00:36:10;;;;;;;23.87;19.37;;;4.20;91.00;;;;;;5116263;28;20172;-91
2022/03/19 00:38:36;;;;;;;23.83;19.50;;;4.20;91.10;;;;;;5116151;28;20191;-92
2022/03/19 00:41:03;;;;;;;23.83;18.97;;;4.30;91.00;;;;;;5098551;28;20180;-90
2022/03/19 00:43:29;;;;;;;23.63;18.97;;;4.40;91.00;;;;;;5097901;28;20276;-88
2022/03/19 00:45:55;;;;;;;23.13;18.83;;;4.40;90.80;;;;;;5097540;28;20169;-92
2022/03/19 00:48:21;;;;;;;23.00;17.90;;;4.50;90.80;;;;;;5115693;28;20179;-90
2022/03/19 00:50:46;;;;;;;22.60;18.20;;;4.40;90.60;;;;;;5097322;28;20208;-88
2022/03/19 00:53:12;;;;;;;22.73;18.27;;;4.30;90.80;;;;;;5118500;28;20200;-91
2022/03/19 00:55:38;;;;;;;23.50;17.73;;;4.20;90.80;;;;;;5097297;28;20236;-90
2022/03/19 00:58:04;;;;;;;23.03;18.03;;;4.30;90.90;;;;;;5115533;28;20177;-89
2022/03/19 01:00:30;;;;;;;24.47;18.63;;;4.20;90.80;;;;;;5121988;28;20176;-88
2022/03/19 01:02:56;;;;;;;20.70;17.37;;;4.20;90.80;;;;;;5125730;28;20177;-89
2022/03/19 01:05:23;;;;;;;22.47;18.57;;;4.20;90.90;;;;;;5128164;28;20174;-91
2022/03/19 01:07:51;;;;;;;24.47;19.00;;;4.20;90.70;;;;;;5097561;28;20211;-92
2022/03/19 01:10:23;;;;;;;22.67;19.50;;;4.10;90.80;;;;;;5097405;28;20208;-90
2022/03/19 01:12:50;;;;;;;23.57;18.43;;;4.10;90.80;;;;;;5096793;28;20199;-86
2022/03/19 01:15:17;;;;;;;22.70;18.07;;;4.10;90.80;;;;;;5115024;28;20238;-86
2022/03/19 01:17:43;;;;;;;23.10;18.50;;;4.10;91.00;;;;;;5114686;28;20175;-87
2022/03/19 01:20:10;;;;;;;23.57;19.30;;;4.00;90.90;;;;;;5096223;28;20228;-87
2022/03/19 01:22:38;;;;;;;24.17;18.57;;;4.00;90.80;;;;;;5114602;28;20201;-86
2022/03/19 01:25:05;;;;;;;25.60;18.97;;;4.00;90.90;;;;;;5114498;28;20168;-86
2022/03/19 01:27:36;;;;;;;24.23;18.70;;;4.00;90.90;;;;;;5114322;28;20214;-88
2022/03/19 01:30:04;;;;;;;27.97;20.10;;;4.00;90.90;;;;;;5115267;28;20209;-86
2022/03/19 01:32:30;;;;;;;23.27;19.63;;;3.80;91.10;;;;;;5114395;28;20263;-86
2022/03/19 01:34:56;;;;;;;22.10;18.47;;;3.80;91.20;;;;;;5114865;28;20210;-91
2022/03/19 01:37:23;;;;;;;29.13;19.37;;;3.70;91.50;;;;;;5097253;28;20570;-91
2022/03/19 01:39:49;;;;;;;23.43;18.50;;;3.60;91.50;;;;;;5117003;28;20176;-90
2022/03/19 01:42:28;;;;;;;22.37;18.87;;;3.70;91.70;;;;;;5122288;28;20162;-91
2022/03/19 01:44:55;;;;;;;22.83;18.67;;;3.70;91.70;;;;;;5120081;28;20562;-92
2022/03/19 01:47:23;;;;;;;24.07;19.07;;;3.60;91.90;;;;;;5115044;28;20510;-91
2022/03/19 01:49:50;;;;;;;23.70;19.07;;;3.60;91.90;;;;;;5096544;28;20211;-91
2022/03/19 01:52:16;;;;;;;21.57;17.93;;;3.70;91.90;;;;;;5114964;28;20168;-91
2022/03/19 01:54:46;;;;;;;22.17;18.03;;;3.70;92.00;;;;;;5114550;28;20169;-91
2022/03/19 01:57:19;;;;;;;21.83;18.37;;;3.70;91.90;;;;;;5114823;28;20703;-91
2022/03/19 01:59:46;;;;;;;22.23;18.73;;;3.70;91.90;;;;;;5096468;28;20536;-90
2022/03/19 02:02:13;;;;;;;23.30;18.30;;;3.70;91.80;;;;;;5114880;28;20248;-89
2022/03/19 02:04:41;;;;;;;25.10;18.97;;;3.70;91.80;;;;;;5103610;28;20351;-91
2022/03/19 02:07:09;;;;;;;25.93;19.40;;;3.80;91.80;;;;;;5117145;28;20158;-90
2022/03/19 02:09:39;;;;;;;23.83;19.47;;;3.70;91.90;;;;;;5121789;28;20201;-87
2022/03/19 02:12:06;;;;;;;22.53;18.10;;;3.70;92.30;;;;;;5105243;28;20176;-89
2022/03/19 02:14:39;;;;;;;22.63;18.40;;;3.70;92.10;;;;;;5116828;28;20190;-87
2022/03/19 02:17:07;;;;;;;22.83;18.47;;;3.70;92.10;;;;;;5114507;28;20165;-91
2022/03/19 02:19:33;;;;;;;22.43;18.07;;;3.70;92.20;;;;;;5096183;28;20181;-88
2022/03/19 02:22:00;;;;;;;22.40;18.13;;;3.70;92.20;;;;;;5114900;28;20212;-86
2022/03/19 02:27:13;;;;;;;22.40;18.27;;;3.80;92.10;;;;;;5119185;28;20169;-87
2022/03/19 02:29:39;;;;;;;25.23;17.80;;;3.80;91.90;;;;;;5096637;28;20267;-87
2022/03/19 02:32:06;;;;;;;24.10;19.13;;;3.80;91.90;;;;;;5095999;28;20174;-86
2022/03/19 02:34:34;;;;;;;23.03;18.27;;;3.80;91.90;;;;;;5095999;28;20181;-88
2022/03/19 02:37:01;;;;;;;23.83;18.93;;;3.70;91.90;;;;;;5095505;28;20170;-86
2022/03/19 02:39:30;;;;;;;24.73;19.00;;;3.70;92.00;;;;;;5095468;28;20180;-87
2022/03/19 02:41:59;;;;;;;22.53;18.60;;;3.70;92.00;;;;;;5095308;28;20267;-87
2022/03/19 02:44:25;;;;;;;23.37;18.83;;;3.60;92.00;;;;;;5095350;28;20243;-86
2022/03/19 02:46:53;;;;;;;21.20;17.97;;;3.70;92.00;;;;;;5113528;28;20195;-85
2022/03/19 02:49:20;;;;;;;23.47;19.47;;;3.70;92.00;;;;;;5115541;28;20198;-87
2022/03/19 02:51:51;;;;;;;25.33;18.90;;;3.70;92.10;;;;;;5115340;28;20258;-87
2022/03/19 02:54:19;;;;;;;22.93;19.00;;;3.60;92.10;;;;;;5118393;28;20164;-89
2022/03/19 02:56:46;;;;;;;24.00;18.87;;;3.70;92.10;;;;;;5101887;28;20195;-91
2022/03/19 02:59:13;;;;;;;22.70;18.97;;;3.70;92.10;;;;;;5120698;28;20186;-87
2022/03/19 03:01:41;;;;;;;23.60;20.17;;;3.60;92.30;;;;;;5122001;28;20170;-87
2022/03/19 03:04:07;;;;;;;22.43;18.20;;;3.60;92.30;;;;;;5099563;28;20174;-89
2022/03/19 03:06:38;;;;;;;23.50;18.93;;;3.70;92.30;;;;;;5118030;28;20170;-88
2022/03/19 03:09:04;;;;;;;25.37;19.30;;;3.70;92.30;;;;;;5119285;28;20200;-86
2022/03/19 03:11:31;;;;;;;24.07;19.37;;;3.70;92.30;;;;;;5118028;28;20171;-90
2022/03/19 03:13:59;;;;;;;23.27;18.60;;;3.70;92.30;;;;;;5118235;28;20170;-89
2022/03/19 03:16:29;;;;;;;24.07;19.57;;;3.70;92.20;;;;;;5118112;28;20162;-91
2022/03/19 03:18:56;;;;;;;26.07;20.23;;;3.80;92.10;;;;;;5100135;28;20708;-91
2022/03/19 03:21:23;;;;;;;25.00;19.37;;;3.70;92.20;;;;;;5106293;28;20612;-90
2022/03/19 03:23:49;;;;;;;24.80;19.97;;;3.60;92.30;;;;;;5121210;28;20188;-91
2022/03/19 03:26:15;;;;;;;26.17;19.57;;;3.50;92.50;;;;;;5122310;28;20206;-88
2022/03/19 03:28:41;;;;;;;22.57;18.70;;;3.40;92.70;;;;;;5103187;28;20233;-91
2022/03/19 03:31:07;;;;;;;26.33;20.17;;;3.40;92.60;;;;;;5106965;28;20280;-90
2022/03/19 03:33:33;;;;;;;23.80;19.60;;;3.40;92.70;;;;;;5119502;28;20171;-87
2022/03/19 03:35:59;;;;;;;24.57;19.20;;;3.40;92.70;;;;;;5098993;28;20174;-86
2022/03/19 03:38:25;;;;;;;24.90;19.20;;;3.50;92.60;;;;;;5117142;28;20169;-87
2022/03/19 03:40:51;;;;;;;23.53;18.80;;;3.50;92.70;;;;;;5098627;28;20231;-86
2022/03/19 03:43:17;;;;;;;27.13;20.27;;;3.40;92.80;;;;;;5119813;28;20704;-86
2022/03/19 03:45:43;;;;;;;23.00;18.93;;;3.50;92.60;;;;;;5118965;28;20162;-86
2022/03/19 03:48:09;;;;;;;24.97;19.93;;;3.50;92.50;;;;;;5141518;28;20214;-88
2022/03/19 03:50:36;;;;;;;23.23;19.50;;;3.50;92.60;;;;;;5141583;28;20189;-87
2022/03/19 03:53:04;;;;;;;23.57;18.87;;;3.50;92.50;;;;;;5138450;28;20174;-86
2022/03/19 03:55:31;;;;;;;23.40;19.33;;;3.60;92.30;;;;;;5137749;28;20167;-88
2022/03/19 03:57:58;;;;;;;24.87;19.43;;;3.60;92.30;;;;;;5131761;28;20160;-87
2022/03/19 04:00:24;;;;;;;23.10;19.53;;;3.60;92.20;;;;;;5111543;28;20271;-86
2022/03/19 04:02:53;;;;;;;22.37;18.17;;;3.50;92.20;;;;;;5122057;28;20199;-89
2022/03/19 04:05:19;;;;;;;26.83;20.10;;;3.50;92.30;;;;;;5098732;28;20321;-92
2022/03/19 04:07:45;;;;;;;26.40;19.57;;;3.40;92.40;;;;;;5098310;28;20174;-92
2022/03/19 04:10:11;;;;;;;22.43;18.87;;;3.40;92.00;;;;;;5117208;28;20215;-89
2022/03/19 04:12:37;;;;;;;20.87;17.50;;;3.40;91.80;;;;;;5116728;28;20616;-87
2022/03/19 04:15:05;;;;;;;22.60;17.60;;;3.30;91.70;;;;;;5120676;28;20257;-91
2022/03/19 04:17:30;;;;;;;23.67;18.40;;;3.40;91.70;;;;;;5099917;28;20168;-90
2022/03/19 04:19:56;;;;;;;23.77;18.57;;;3.30;91.70;;;;;;5120453;28;20252;-90
2022/03/19 04:22:22;;;;;;;22.53;18.40;;;3.30;91.80;;;;;;5116545;28;20628;-88
2022/03/19 04:24:48;;;;;;;23.03;18.37;;;3.20;92.00;;;;;;5116124;28;20166;-88
2022/03/19 04:27:14;;;;;;;21.50;17.90;;;3.20;92.10;;;;;;5097390;28;20532;-88
2022/03/19 04:29:40;;;;;;;22.00;17.53;;;3.20;92.10;;;;;;5116080;28;20204;-86
2022/03/19 04:32:07;;;;;;;22.83;18.30;;;3.20;92.10;;;;;;5097577;28;20166;-87
2022/03/19 04:34:34;;;;;;;22.50;18.10;;;3.20;91.90;;;;;;5115862;28;20631;-86
2022/03/19 04:36:59;;;;;;;23.83;19.03;;;3.20;91.80;;;;;;5118242;28;20181;-89
2022/03/19 04:39:26;;;;;;;22.97;18.63;;;3.20;91.90;;;;;;5117443;28;20165;-87
2022/03/19 04:41:52;;;;;;;24.47;18.93;;;3.20;91.90;;;;;;5098155;28;20173;-91
2022/03/19 04:44:18;;;;;;;25.03;18.23;;;3.10;92.00;;;;;;5116543;28;20172;-89
2022/03/19 04:46:44;;;;;;;25.90;20.60;;;3.10;92.20;;;;;;5097826;28;20172;-88
2022/03/19 04:49:09;;;;;;;26.40;21.07;;;3.00;92.10;;;;;;5115718;28;20199;-92
2022/03/19 04:51:38;;;;;;;26.23;20.57;;;3.00;92.30;;;;;;5097437;28;20177;-91
2022/03/19 04:54:04;;;;;;;26.60;21.73;;;2.90;92.50;;;;;;5097477;28;20184;-92
2022/03/19 04:56:31;;;;;;;32.80;21.80;;;2.80;92.80;;;;;;5115917;28;20168;-91
2022/03/19 04:58:58;;;;;;;28.20;21.20;;;2.90;92.70;;;;;;5115828;28;20174;-92
2022/03/19 05:01:29;;;;;;;25.93;19.87;;;3.00;92.60;;;;;;5115626;28;20222;-91
2022/03/19 05:03:55;;;;;;;29.03;20.87;;;3.00;92.60;;;;;;5116031;28;20177;-92
2022/03/19 05:06:21;;;;;;;27.27;20.60;;;3.00;92.40;;;;;;5115978;28;20187;-91
2022/03/19 05:11:35;;;;;;;25.17;19.20;;;3.00;92.50;;;;;;5119920;28;20175;-87
2022/03/19 05:14:01;;;;;;;25.17;19.53;;;2.90;92.60;;;;;;5101200;28;20544;-85
2022/03/19 05:16:27;;;;;;;24.50;19.37;;;2.90;92.80;;;;;;5102637;28;20178;-87
2022/03/19 05:18:52;;;;;;;27.63;20.10;;;2.90;92.80;;;;;;5118099;28;20177;-86
2022/03/19 05:21:18;;;;;;;28.33;21.50;;;3.00;92.90;;;;;;5118579;28;20230;-87
2022/03/19 05:23:47;;;;;;;28.57;20.33;;;3.10;92.90;;;;;;5114928;28;20180;-87
2022/03/19 05:26:13;;;;;;;27.67;19.50;;;3.30;92.80;;;;;;5097571;28;20214;-87
2022/03/19 05:28:39;;;;;;;25.53;20.53;;;3.30;92.70;;;;;;5127054;28;20248;-86
2022/03/19 05:31:08;;;;;;;29.53;21.33;;;3.40;92.60;;;;;;5138059;28;20241;-86
2022/03/19 05:36:18;;;;;;;36.33;24.53;;;3.40;92.40;;;;;;5121679;28;20186;-86
2022/03/19 05:38:44;;;;;;;41.00;24.93;;;3.30;92.40;;;;;;5098576;28;20181;-89
2022/03/19 05:41:10;;;;;;;38.97;25.47;;;3.20;92.30;;;;;;5115157;28;20528;-85
2022/03/19 05:43:43;;;;;;;31.10;23.67;;;3.30;92.30;;;;;;5098586;28;20184;-86
2022/03/19 05:46:09;;;;;;;33.23;22.77;;;3.20;92.20;;;;;;5096857;28;20221;-91
2022/03/19 05:48:34;;;;;;;25.17;19.37;;;3.30;92.10;;;;;;5114870;28;20649;-91
2022/03/19 05:51:01;;;;;;;25.13;20.03;;;3.30;92.10;;;;;;5117543;28;20280;-88
2022/03/19 05:53:28;;;;;;;27.83;20.57;;;3.40;91.80;;;;;;5097513;28;20175;-90
2022/03/19 05:55:54;;;;;;;28.30;21.53;;;3.40;91.80;;;;;;5098255;28;20230;-90
2022/03/19 05:58:20;;;;;;;28.63;21.33;;;3.40;91.80;;;;;;5114780;28;20173;-90
2022/03/19 06:00:46;;;;;;;25.23;20.33;;;3.40;91.80;;;;;;5114653;28;20185;-90
2022/03/19 06:03:11;;;;;;;25.47;19.80;;;3.50;91.60;;;;;;5114694;28;20189;-88
2022/03/19 06:05:37;;;;;;;24.73;19.90;;;3.50;91.50;;;;;;5115034;28;20181;-89
2022/03/19 06:08:04;;;;;;;23.10;19.70;;;3.50;91.60;;;;;;5116796;28;20200;-91
2022/03/19 06:10:29;;;;;;;25.00;19.60;;;3.60;91.70;;;;;;5114949;28;20206;-89
2022/03/19 06:12:55;;;;;;;25.30;19.53;;;3.60;91.60;;;;;;5114586;28;20184;-91
2022/03/19 06:15:21;;;;;;;25.63;19.90;;;3.60;91.50;;;;;;5114810;28;20184;-91
2022/03/19 06:17:47;;;;;;;23.67;19.77;;;3.60;91.40;;;;;;5096017;28;20271;-91
2022/03/19 06:20:12;;;;;;;23.70;18.77;;;3.70;91.50;;;;;;5096294;28;20174;-91
2022/03/19 06:22:41;;;;;;;24.90;19.50;;;3.70;91.60;;;;;;5096228;28;20378;-90
2022/03/19 06:25:08;;;;;;;24.90;20.73;;;3.70;91.60;;;;;;5095907;28;20185;-90
2022/03/19 06:27:33;;;;;;;25.07;20.17;;;3.70;91.60;;;;;;5095726;28;20232;-91
2022/03/19 06:29:59;;;;;;;27.97;20.80;;;3.80;91.60;;;;;;5115457;28;20208;-91
2022/03/19 06:32:25;;;;;;;26.03;20.83;;;3.90;91.50;;;;;;5118333;28;20174;-87
2022/03/19 06:34:50;;;;;;;26.00;20.87;;;3.90;91.20;;;;;;5119173;28;20177;-86
2022/03/19 06:37:19;;;;;;;26.27;20.53;;;4.00;91.40;;;;;;5120531;28;20165;-88
2022/03/19 06:39:46;;;;;;;24.70;20.17;;;4.10;91.40;;;;;;5123832;28;20501;-86
2022/03/19 06:42:12;;;;;;;27.77;20.70;;;4.20;91.30;;;;;;5099929;28;20483;-87
2022/03/19 06:44:38;;;;;;;27.13;20.63;;;4.20;91.10;;;;;;5099472;28;20755;-86
2022/03/19 06:47:05;;;;;;;25.30;20.57;;;4.20;91.10;;;;;;5099435;28;20270;-86
2022/03/19 06:49:32;;;;;;;25.97;21.20;;;4.20;91.40;;;;;;5117303;28;20224;-86
2022/03/19 06:51:58;;;;;;;26.40;21.50;;;4.20;91.60;;;;;;5117301;28;20184;-87
2022/03/19 06:54:23;;;;;;;28.07;20.77;;;4.20;91.40;;;;;;5117524;28;20248;-86
2022/03/19 06:56:49;;;;;;;23.70;19.77;;;4.20;91.30;;;;;;5102378;28;20218;-87
2022/03/19 06:59:15;;;;;;;25.27;20.43;;;4.30;91.40;;;;;;5103048;28;20624;-89
2022/03/19 07:01:41;;;;;;;26.83;21.47;;;4.30;91.50;;;;;;5102208;28;20183;-90
2022/03/19 07:04:06;;;;;;;27.03;21.20;;;4.30;91.30;;;;;;5120130;28;20166;-87
2022/03/19 07:06:32;;;;;;;26.17;21.33;;;4.40;91.60;;;;;;5104525;28;20215;-88
2022/03/19 07:08:58;;;;;;;27.87;21.57;;;4.50;91.70;;;;;;5118612;28;20620;-86
2022/03/19 07:11:24;;;;;;;28.33;22.40;;;4.50;91.60;;;;;;5117247;28;20658;-86
2022/03/19 07:13:49;;;;;;;31.77;21.70;;;4.50;91.70;;;;;;5118316;28;20199;-87
2022/03/19 07:16:15;;;;;;;30.53;22.83;;;4.50;91.90;;;;;;5137690;28;20194;-87
2022/03/19 07:18:42;;;;;;;28.03;22.27;;;4.70;91.70;;;;;;5139911;28;20150;-90
2022/03/19 07:21:09;;;;;;;28.60;21.67;;;4.80;91.40;;;;;;5119147;28;20249;-87
2022/03/19 07:23:35;;;;;;;28.87;22.63;;;4.90;91.20;;;;;;5118810;28;20199;-89
2022/03/19 07:26:01;;;;;;;31.30;22.83;;;5.00;91.10;;;;;;5117285;28;20627;-87
2022/03/19 07:28:28;;;;;;;30.20;23.23;;;5.00;91.30;;;;;;5116890;28;20281;-87
2022/03/19 07:30:54;;;;;;;28.13;23.30;;;5.00;91.30;;;;;;5099099;28;20225;-85
2022/03/19 07:33:20;;;;;;;30.07;22.83;;;5.20;91.20;;;;;;5116735;28;20209;-86
2022/03/19 07:35:46;;;;;;;29.93;23.07;;;5.30;91.10;;;;;;5098412;28;20703;-86
2022/03/19 07:38:12;;;;;;;28.50;23.40;;;5.40;91.20;;;;;;5118263;28;20268;-87
2022/03/19 07:43:24;;;;;;;29.27;22.60;;;5.50;90.90;;;;;;5125778;28;20165;-88
2022/03/19 07:45:51;;;;;;;29.93;22.17;;;5.60;90.70;;;;;;5107863;28;20181;-87
2022/03/19 07:48:18;;;;;;;32.73;23.17;;;5.70;90.50;;;;;;5119307;28;20252;-90
2022/03/19 07:50:44;;;;;;;28.67;23.30;;;5.70;90.40;;;;;;5117131;28;20196;-84
2022/03/19 07:53:10;;;;;;;26.73;22.43;;;5.70;90.50;;;;;;5117120;28;20183;-90
2022/03/19 07:55:36;;;;;;;28.77;23.87;;;5.80;90.60;;;;;;5117268;28;20184;-87
2022/03/19 07:58:03;;;;;;;29.73;22.90;;;5.90;90.40;;;;;;5099042;28;20169;-86
2022/03/19 08:00:29;;;;;;;29.53;22.87;;;6.10;90.20;;;;;;5117454;28;20249;-89
2022/03/19 08:02:55;;;;;;;33.17;24.63;;;6.10;90.00;;;;;;5124428;28;20188;-91
2022/03/19 08:05:21;;;;;;;30.40;24.13;;;6.20;90.00;;;;;;5117140;28;20226;-86
2022/03/19 08:07:46;;;;;;;31.47;23.47;;;6.40;90.10;;;;;;5126982;28;20534;-91
2022/03/19 08:10:13;;;;;;;30.37;24.03;;;6.50;89.60;;;;;;5101037;28;20207;-91
2022/03/19 08:12:41;;;;;;;29.77;23.47;;;6.60;88.90;;;;;;5119264;28;20608;-85
2022/03/19 08:15:10;;;;;;;30.17;23.27;;;6.60;89.40;;;;;;5117785;28;20202;-91
2022/03/19 08:17:41;;;;;;;27.97;22.63;;;6.80;89.00;;;;;;5117270;28;20505;-92
2022/03/19 08:20:08;;;;;;;32.47;23.50;;;7.00;88.50;;;;;;5100139;28;20502;-91
2022/03/19 08:22:34;;;;;;;28.70;23.47;;;7.20;88.00;;;;;;5100454;28;20268;-91
2022/03/19 08:25:01;;;;;;;27.33;21.53;;;7.40;87.50;;;;;;5100833;28;20707;-91
2022/03/19 08:27:27;;;;;;;25.43;20.70;;;7.40;85.80;;;;;;5119230;28;20218;-91
2022/03/19 08:29:56;;;;;;;25.70;20.67;;;7.50;85.10;;;;;;5117133;28;20200;-86
2022/03/19 08:32:22;;;;;;;22.67;19.53;;;7.50;85.70;;;;;;5128726;28;20175;-86
2022/03/19 08:34:49;;;;;;;27.27;19.50;;;7.70;83.40;;;;;;5137990;28;20181;-89
2022/03/19 08:37:15;;;;;;;24.37;20.50;;;7.90;83.00;;;;;;5139538;28;20181;-87
2022/03/19 08:42:26;;;;;;;25.60;21.30;;;8.00;82.20;;;;;;5128663;28;20203;-88
2022/03/19 08:44:51;;;;;;;28.33;20.10;;;8.00;82.30;;;;;;5122017;28;20174;-91
2022/03/19 08:47:17;;;;;;;27.00;21.10;;;7.90;82.10;;;;;;5119339;28;20171;-87
2022/03/19 08:49:43;;;;;;;25.80;19.20;;;8.00;82.20;;;;;;5116802;28;20203;-88
2022/03/19 08:52:09;;;;;;;24.60;20.53;;;8.10;82.20;;;;;;5123630;28;20172;-86
2022/03/19 08:54:35;;;;;;;23.47;19.93;;;8.10;80.90;;;;;;5101251;28;20175;-89
2022/03/19 08:57:02;;;;;;;24.07;20.97;;;8.20;80.60;;;;;;5118297;28;20187;-87
2022/03/19 08:59:28;;;;;;;22.40;19.70;;;8.20;81.00;;;;;;5118975;28;20170;-90
2022/03/19 09:01:55;;;;;;;27.07;20.10;;;8.30;80.50;;;;;;5120996;28;20175;-87
2022/03/19 09:04:21;;;;;;;22.63;19.77;;;8.30;80.40;;;;;;5127664;28;20177;-87
2022/03/19 09:06:48;;;;;;;23.50;19.47;;;8.50;80.00;;;;;;5136863;28;20160;-90
2022/03/19 09:09:16;;;;;;;24.53;20.20;;;8.50;79.90;;;;;;5132996;28;20202;-90
2022/03/19 09:11:42;;;;;;;25.10;19.90;;;8.70;79.60;;;;;;5100476;28;20550;-89
2022/03/19 09:14:08;;;;;;;21.67;19.10;;;8.80;79.00;;;;;;5118104;28;20162;-90
2022/03/19 09:16:35;;;;;;;25.90;20.33;;;8.90;78.30;;;;;;5115310;28;20171;-87
2022/03/19 09:19:01;;;;;;;24.13;20.97;;;8.80;78.90;;;;;;5096489;28;20185;-86
2022/03/19 09:21:29;;;;;;;25.33;21.30;;;8.90;79.90;;;;;;5114576;28;20238;-87
2022/03/19 09:23:58;;;;;;;25.67;22.17;;;9.00;80.30;;;;;;5096508;28;20264;-88
2022/03/19 09:26:25;;;;;;;26.47;21.57;;;9.10;80.90;;;;;;5096465;28;20267;-87
2022/03/19 09:28:51;;;;;;;27.77;22.03;;;9.20;80.40;;;;;;5123523;28;20248;-86
2022/03/19 09:31:17;;;;;;;28.87;23.60;;;9.30;80.10;;;;;;5109558;28;20216;-86
2022/03/19 09:33:46;;;;;;;29.17;22.63;;;9.40;80.50;;;;;;5123904;28;20234;-86
2022/03/19 09:36:13;;;;;;;26.93;21.90;;;9.50;80.30;;;;;;5115266;28;20170;-85
2022/03/19 09:38:40;;;;;;;29.20;23.63;;;9.60;79.70;;;;;;5095739;28;20178;-85
2022/03/19 09:41:06;;;;;;;28.57;22.97;;;9.70;79.60;;;;;;5093608;28;20227;-85
2022/03/19 09:43:32;;;;;;;25.23;22.53;;;9.70;79.60;;;;;;5095972;28;20191;-87
2022/03/19 09:45:58;;;;;;;27.00;22.17;;;9.70;79.70;;;;;;5116046;28;20593;-88
2022/03/19 09:48:24;;;;;;;25.03;21.70;;;9.70;80.00;;;;;;5117199;28;20176;-86
2022/03/19 09:50:52;;;;;;;25.23;22.47;;;9.80;79.80;;;;;;5098104;28;20215;-89
2022/03/19 09:53:20;;;;;;;25.60;21.93;;;9.90;80.10;;;;;;5114891;28;20169;-88
2022/03/19 09:55:46;;;;;;;24.07;21.50;;;9.90;80.10;;;;;;5114758;28;20177;-90
2022/03/19 09:58:15;;;;;;;25.33;21.90;;;9.90;79.70;;;;;;5114657;28;20174;-90
2022/03/19 10:00:41;;;;;;;30.33;21.70;;;9.90;79.50;;;;;;5096392;28;20183;-92
2022/03/19 10:03:12;;;;;;;25.50;21.13;;;9.80;79.70;;;;;;5115095;28;20504;-92
2022/03/19 10:08:38;;;;;;;24.00;20.90;;;9.80;79.70;;;;;;5129753;28;20173;-92
2022/03/19 10:11:10;;;;;;;23.43;20.93;;;9.90;80.20;;;;;;5121191;28;20236;-92
2022/03/19 10:13:38;;;;;;;25.13;22.43;;;9.90;79.90;;;;;;5117040;28;20158;-93
2022/03/19 10:16:04;;;;;;;26.30;22.13;;;10.00;78.70;;;;;;5115100;28;20182;-92
2022/03/19 10:18:31;;;;;;;26.67;21.60;;;10.10;78.80;;;;;;5116343;28;20176;-92
2022/03/19 10:21:03;;;;;;;25.67;20.57;;;10.20;78.90;;;;;;5114239;28;20174;-88
2022/03/19 10:23:33;;;;;;;25.03;21.50;;;10.30;78.60;;;;;;5115918;28;20191;-90
2022/03/19 10:26:00;;;;;;;27.83;21.53;;;10.40;78.20;;;;;;5096991;28;20185;-90
2022/03/19 10:28:34;;;;;;;24.07;20.17;;;10.50;78.40;;;;;;5114823;28;20268;-93
2022/03/19 10:31:00;;;;;;;25.67;21.33;;;10.60;77.50;;;;;;5116574;28;20204;-88
2022/03/19 10:33:30;;;;;;;24.20;21.70;;;10.70;77.50;;;;;;5115524;28;20180;-90
2022/03/19 10:36:08;;;;;;;26.10;21.63;;;10.70;77.70;;;;;;5100433;28;20250;-89
2022/03/19 10:38:45;;;;;;;23.37;20.87;;;10.90;77.50;;;;;;5097832;28;20177;-91
2022/03/19 10:41:20;;;;;;;23.53;20.97;;;10.70;76.60;;;;;;5114913;28;20658;-89
2022/03/19 10:43:46;;;;;;;24.10;20.63;;;10.80;77.00;;;;;;5118627;28;20164;-87
2022/03/19 10:46:13;;;;;;;23.93;21.10;;;10.80;76.20;;;;;;5096983;28;20186;-86
2022/03/19 10:48:39;;;;;;;23.83;20.97;;;10.80;76.30;;;;;;5114575;28;20654;-90
2022/03/19 10:51:09;;;;;;;23.33;20.50;;;10.90;76.90;;;;;;5115028;28;20202;-84
2022/03/19 10:53:35;;;;;;;22.93;20.53;;;11.00;77.00;;;;;;5094471;28;20185;-90
2022/03/19 10:56:03;;;;;;;23.53;21.00;;;11.20;75.50;;;;;;5137497;28;20166;-86
2022/03/19 10:58:29;;;;;;;22.13;19.83;;;11.20;74.20;;;;;;5124092;28;20185;-86
2022/03/19 11:00:56;;;;;;;23.53;20.10;;;11.20;74.20;;;;;;5116108;28;20258;-85
2022/03/19 11:03:27;;;;;;;20.80;18.57;;;11.20;74.00;;;;;;5116144;28;20200;-85
2022/03/19 11:05:57;;;;;;;20.53;18.43;;;11.10;72.10;;;;;;5116871;28;20171;-86
2022/03/19 11:08:24;;;;;;;22.53;19.40;;;11.00;72.90;;;;;;5114956;28;20171;-90
2022/03/19 11:10:52;;;;;;;25.00;18.23;;;11.10;71.40;;;;;;5115310;28;20285;-87
2022/03/19 11:13:22;;;;;;;19.83;17.73;;;11.10;71.60;;;;;;5121049;28;20177;-89
2022/03/19 11:15:52;;;;;;;20.47;17.80;;;11.10;71.70;;;;;;5097089;28;20167;-89
2022/03/19 11:18:21;;;;;;;19.57;17.53;;;11.10;72.40;;;;;;5117135;28;20502;-88
2022/03/19 11:20:48;;;;;;;19.80;17.70;;;11.20;71.40;;;;;;5116975;28;20177;-86
2022/03/19 11:23:15;;;;;;;22.90;20.40;;;11.10;70.50;;;;;;5098954;28;20182;-88
2022/03/19 11:25:50;;;;;;;19.50;17.43;;;11.10;70.20;;;;;;5117106;28;20221;-86
2022/03/19 11:28:17;;;;;;;19.80;17.70;;;11.10;70.10;;;;;;5097658;28;20233;-85
2022/03/19 11:31:04;;;;;;;20.30;18.20;;;11.20;71.00;;;;;;5116874;28;20201;-90
2022/03/19 11:33:31;;;;;;;21.37;18.27;;;11.10;70.10;;;;;;5116820;28;20155;-90
2022/03/19 11:36:03;;;;;;;20.40;17.77;;;11.20;69.90;;;;;;5098194;28;20185;-90
2022/03/19 11:38:31;;;;;;;20.23;18.07;;;11.30;70.00;;;;;;5116688;28;20182;-90
2022/03/19 11:40:59;;;;;;;20.67;18.47;;;11.40;68.50;;;;;;5098687;28;20194;-91
2022/03/19 11:43:25;;;;;;;20.53;18.40;;;11.50;68.10;;;;;;5117141;28;20166;-91
2022/03/19 11:45:56;;;;;;;20.53;18.43;;;11.50;68.40;;;;;;5116710;28;20567;-91
2022/03/19 11:48:43;;;;;;;21.90;18.40;;;11.50;68.10;;;;;;5117176;28;20183;-90
2022/03/19 11:51:15;;;;;;;19.93;17.40;;;11.40;68.10;;;;;;5098254;28;20215;-91
2022/03/19 11:53:56;;;;;;;20.17;18.07;;;11.30;67.70;;;;;;5098317;28;20217;-87
2022/03/19 11:56:26;;;;;;;20.90;18.70;;;11.40;68.30;;;;;;5116225;28;20180;-89
2022/03/19 11:58:52;;;;;;;18.80;16.90;;;11.60;68.80;;;;;;5116245;28;20518;-88
2022/03/19 12:01:38;;;;;;;20.47;17.50;;;11.70;67.30;;;;;;5098266;28;20167;-90
2022/03/19 12:04:09;;;;;;;20.80;17.80;;;11.80;64.40;;;;;;5116834;28;20176;-87
2022/03/19 12:06:38;;;;;;;18.37;16.50;;;11.80;62.70;;;;;;5098467;28;20264;-90
2022/03/19 12:09:05;;;;;;;22.73;18.40;;;11.80;64.20;;;;;;5118856;28;20178;-91
2022/03/19 12:11:33;;;;;;;20.83;17.67;;;11.80;65.20;;;;;;5118020;28;20174;-90
2022/03/19 12:13:59;;;;;;;20.53;18.17;;;11.90;64.60;;;;;;5097769;28;20192;-90
2022/03/19 12:16:40;;;;;;;26.73;23.43;;;12.00;64.70;;;;;;5115729;28;20187;-87
2022/03/19 12:19:06;;;;;;;20.70;18.60;;;11.90;63.70;;;;;;5115828;28;20646;-87
2022/03/19 12:21:41;;;;;;;20.23;17.80;;;11.80;64.50;;;;;;5116243;28;20170;-90
2022/03/19 12:24:13;;;;;;;19.63;17.53;;;11.70;64.20;;;;;;5116298;28;20173;-90
2022/03/19 12:26:44;;;;;;;20.90;18.13;;;11.80;64.70;;;;;;5122665;28;20146;-87
2022/03/19 12:29:13;;;;;;;20.70;18.50;;;11.90;64.10;;;;;;5120632;28;20226;-88
2022/03/19 12:31:48;;;;;;;20.20;17.87;;;11.90;63.50;;;;;;5119077;28;20183;-91
2022/03/19 12:34:22;;;;;;;20.00;16.93;;;11.90;63.10;;;;;;5119977;28;20507;-89
2022/03/19 12:36:49;;;;;;;19.50;17.50;;;11.90;62.60;;;;;;5122845;28;20249;-90
2022/03/19 12:39:16;;;;;;;19.30;17.20;;;11.90;62.40;;;;;;5103422;28;20169;-90
2022/03/19 12:41:43;;;;;;;19.43;17.37;;;11.80;62.00;;;;;;5131924;28;20168;-90
2022/03/19 12:44:18;;;;;;;20.63;17.40;;;11.80;62.10;;;;;;5139513;28;20171;-90
2022/03/19 12:46:44;;;;;;;21.57;17.87;;;11.90;62.60;;;;;;5135723;28;20169;-85
2022/03/19 12:49:12;;;;;;;19.07;17.07;;;12.00;62.00;;;;;;5106909;28;20185;-90
2022/03/19 12:51:43;;;;;;;19.97;17.87;;;12.00;62.80;;;;;;5118967;28;20191;-90
2022/03/19 12:54:27;;;;;;;21.10;18.80;;;12.00;61.80;;;;;;5115461;28;20174;-90